Time;durP1;ratioP1;P1;durP2;ratioP2;P2;SDS_P1;SDS_P2;PMS_P1;PMS_P2;Temp;Humidity;BMP_temperature;BMP_pressure;BME280_temperature;BME280_humidity;BME280_pressure;Samples;Min_cycle;Max_cycle;Signal;HPM_P1;HPM_P2
2022/03/25 00:00:26;;;;;;;6.13;0.82;;;;;;;17.64;49.10;100338.53;5028627;28;20107;-71
2022/03/25 00:02:57;;;;;;;11.88;2.40;;;;;;;17.62;48.98;100332.38;5029475;28;20050;-73
2022/03/25 00:05:24;;;;;;;13.70;2.50;;;;;;;17.73;49.26;100353.47;5028372;28;20518;-73
2022/03/25 00:07:52;;;;;;;14.25;3.03;;;;;;;17.69;48.44;100315.75;5027986;28;20497;-71
2022/03/25 00:10:19;;;;;;;9.20;1.90;;;;;;;17.77;48.75;100326.25;5026602;28;20050;-72
2022/03/25 00:12:46;;;;;;;12.80;2.90;;;;;;;17.65;49.07;100308.31;5026138;28;20072;-71
2022/03/25 00:15:13;;;;;;;19.38;2.83;;;;;;;17.79;48.57;100327.91;5030075;28;20501;-71
2022/03/25 00:17:40;;;;;;;7.22;2.40;;;;;;;17.81;48.69;100317.09;5029208;28;20049;-72
2022/03/25 00:20:08;;;;;;;9.07;1.88;;;;;;;17.94;48.88;100338.69;5031834;28;20046;-71
2022/03/25 00:22:36;;;;;;;9.63;2.78;;;;;;;17.79;48.58;100314.63;5028108;28;20407;-71
2022/03/25 00:25:04;;;;;;;8.98;2.20;;;;;;;18.04;48.32;100332.69;5029285;28;20045;-72
2022/03/25 00:27:32;;;;;;;12.17;2.00;;;;;;;17.92;48.58;100324.91;5023498;28;20050;-72
2022/03/25 00:29:59;;;;;;;6.82;1.95;;;;;;;17.94;48.72;100344.34;5030788;28;20108;-72
2022/03/25 00:32:27;;;;;;;9.65;1.23;;;;;;;17.85;48.55;100335.06;5026058;28;20057;-72
2022/03/25 00:34:53;;;;;;;5.78;1.92;;;;;;;17.79;48.43;100313.81;5022174;28;20052;-71
2022/03/25 00:37:21;;;;;;;10.93;2.00;;;;;;;17.95;48.81;100340.38;5024738;28;20398;-71
2022/03/25 00:39:47;;;;;;;8.25;2.10;;;;;;;17.76;48.43;100293.53;5028546;28;20049;-71
2022/03/25 00:42:16;;;;;;;7.95;2.10;;;;;;;17.94;48.58;100327.38;5021340;28;20053;-71
2022/03/25 00:44:42;;;;;;;10.20;2.47;;;;;;;17.82;48.65;100307.47;5026618;28;20512;-72
2022/03/25 00:47:09;;;;;;;17.55;2.53;;;;;;;17.69;48.70;100298.00;5029456;28;20103;-72
2022/03/25 00:49:37;;;;;;;7.45;2.08;;;;;;;17.76;48.82;100318.13;5029664;28;20068;-72
2022/03/25 00:52:04;;;;;;;11.07;2.10;;;;;;;17.64;48.79;100289.69;5024122;28;20045;-72
2022/03/25 00:54:31;;;;;;;12.70;3.72;;;;;;;17.77;48.67;100294.34;5025096;28;20057;-72
2022/03/25 00:56:58;;;;;;;7.95;2.47;;;;;;;17.75;48.36;100294.66;5022632;28;20057;-71
2022/03/25 00:59:25;;;;;;;12.10;1.90;;;;;;;17.93;48.41;100320.91;5017000;28;20045;-71
2022/03/25 01:01:52;;;;;;;7.03;1.65;;;;;;;17.69;48.57;100293.16;5019933;28;20050;-71
2022/03/25 01:04:19;;;;;;;8.50;2.38;;;;;;;17.86;48.44;100314.13;5025435;28;20080;-71
2022/03/25 01:06:46;;;;;;;14.70;2.72;;;;;;;17.80;48.84;100304.16;5023804;28;20436;-71
2022/03/25 01:09:13;;;;;;;7.45;1.90;;;;;;;17.98;48.30;100317.06;5020128;28;20045;-72
2022/03/25 01:11:40;;;;;;;12.90;3.40;;;;;;;17.74;48.71;100294.97;5024763;28;20051;-72
2022/03/25 01:14:08;;;;;;;12.27;1.90;;;;;;;17.69;48.92;100290.34;5025539;28;20049;-71
2022/03/25 01:16:35;;;;;;;16.23;4.95;;;;;;;17.84;49.05;100305.13;5025946;28;20123;-75
2022/03/25 01:19:03;;;;;;;18.80;3.60;;;;;;;17.48;48.98;100255.50;5021715;28;20049;-76
2022/03/25 01:21:30;;;;;;;8.10;1.80;;;;;;;17.75;48.73;100286.19;5031271;28;20054;-75
2022/03/25 01:23:57;;;;;;;9.20;1.98;;;;;;;17.87;48.62;100307.28;5022189;28;20080;-76
2022/03/25 01:26:24;;;;;;;7.10;1.90;;;;;;;17.67;48.81;100272.91;5027215;28;20087;-74
2022/03/25 01:28:52;;;;;;;13.88;2.53;;;;;;;17.69;48.59;100272.59;5025714;28;20045;-77
2022/03/25 01:31:20;;;;;;;5.43;1.92;;;;;;;17.90;48.56;100292.50;5023977;28;20056;-74
2022/03/25 01:33:47;;;;;;;11.93;2.58;;;;;;;17.81;49.01;100297.34;5023669;28;20061;-74
2022/03/25 01:36:15;;;;;;;7.72;2.28;;;;;;;17.72;48.85;100274.75;5027845;28;20057;-74
2022/03/25 01:38:44;;;;;;;10.68;2.28;;;;;;;17.74;49.02;100278.03;5023600;28;20046;-74
2022/03/25 01:41:11;;;;;;;8.65;2.75;;;;;;;17.90;48.66;100281.19;5022786;28;20416;-74
2022/03/25 01:43:38;;;;;;;12.35;2.33;;;;;;;17.86;48.99;100269.75;5018613;28;20475;-75
2022/03/25 01:46:05;;;;;;;11.90;3.90;;;;;;;17.84;49.01;100265.59;5025678;28;20049;-74
2022/03/25 01:48:32;;;;;;;11.18;2.28;;;;;;;17.93;48.94;100274.88;5030060;28;20053;-74
2022/03/25 01:51:00;;;;;;;5.38;2.50;;;;;;;17.81;48.71;100274.72;5026093;28;20046;-72
2022/03/25 01:53:27;;;;;;;8.45;1.70;;;;;;;17.89;49.01;100283.19;5033816;28;20068;-72
2022/03/25 01:55:59;;;;;;;5.75;1.77;;;;;;;17.84;49.07;100283.38;5031662;28;20053;-71
2022/03/25 01:58:28;;;;;;;5.63;1.88;;;;;;;17.83;48.77;100272.41;5029786;28;20456;-72
2022/03/25 02:00:55;;;;;;;11.15;1.98;;;;;;;17.87;49.01;100270.56;5033684;28;20423;-73
2022/03/25 02:03:23;;;;;;;10.50;2.78;;;;;;;17.86;48.82;100272.56;5032990;28;20045;-72
2022/03/25 02:05:51;;;;;;;7.53;2.22;;;;;;;17.81;49.30;100271.91;5027827;28;20077;-72
2022/03/25 02:08:18;;;;;;;15.07;1.90;;;;;;;17.50;49.16;100211.69;5028174;28;20136;-73
2022/03/25 02:10:45;;;;;;;15.02;1.92;;;;;;;17.80;49.27;100264.59;5028391;28;20100;-72
2022/03/25 02:13:12;;;;;;;10.55;2.30;;;;;;;17.77;49.40;100252.81;5028166;28;20433;-72
2022/03/25 02:15:42;;;;;;;10.57;2.38;;;;;;;17.90;49.13;100244.47;5029878;28;20504;-71
2022/03/25 02:18:15;;;;;;;16.48;2.50;;;;;;;17.55;48.75;100193.72;5028043;28;20085;-71
2022/03/25 02:20:43;;;;;;;9.40;2.42;;;;;;;17.82;48.85;100251.81;5026209;28;20073;-71
2022/03/25 02:23:11;;;;;;;11.35;2.35;;;;;;;17.71;48.91;100234.38;5024023;28;20073;-70
2022/03/25 02:25:40;;;;;;;10.55;3.50;;;;;;;17.72;48.99;100230.38;5032822;28;20570;-71
2022/03/25 02:28:07;;;;;;;7.30;2.23;;;;;;;17.60;49.35;100229.41;5031444;28;20132;-71
2022/03/25 02:30:36;;;;;;;12.55;1.60;;;;;;;17.71;49.59;100248.50;5029509;28;20509;-71
2022/03/25 02:33:04;;;;;;;14.52;2.83;;;;;;;17.74;49.13;100255.44;5028580;28;20126;-71
2022/03/25 02:35:40;;;;;;;9.55;2.28;;;;;;;17.67;49.52;100244.66;5028022;28;20057;-70
2022/03/25 02:38:08;;;;;;;14.70;3.72;;;;;;;17.68;49.65;100240.69;5025983;28;20049;-71
2022/03/25 02:40:35;;;;;;;8.50;1.92;;;;;;;17.69;49.50;100233.03;5023738;28;20133;-71
2022/03/25 02:43:03;;;;;;;5.88;1.80;;;;;;;17.62;49.49;100210.97;5029969;28;20095;-71
2022/03/25 02:45:30;;;;;;;15.32;2.70;;;;;;;17.48;49.54;100196.22;5023158;28;20129;-72
2022/03/25 02:47:58;;;;;;;11.77;2.17;;;;;;;17.61;49.58;100214.97;5027617;28;20137;-72
2022/03/25 02:50:25;;;;;;;6.32;2.28;;;;;;;17.59;49.69;100227.75;5018194;28;20050;-72
2022/03/25 02:52:53;;;;;;;4.97;1.80;;;;;;;17.42;49.70;100215.31;5023674;28;20543;-72
2022/03/25 02:55:20;;;;;;;7.45;1.77;;;;;;;17.49;50.07;100232.56;5023108;28;20538;-72
2022/03/25 02:57:47;;;;;;;5.38;2.15;;;;;;;17.33;50.33;100211.69;5018876;28;20088;-72
2022/03/25 03:00:14;;;;;;;9.02;2.63;;;;;;;17.49;49.96;100218.47;5031197;28;20483;-71
2022/03/25 03:02:42;;;;;;;15.30;2.20;;;;;;;17.56;49.65;100212.31;5028398;28;20137;-71
2022/03/25 03:05:10;;;;;;;9.95;2.47;;;;;;;17.28;49.83;100156.25;5026713;28;20053;-71
2022/03/25 03:07:37;;;;;;;6.70;2.78;;;;;;;17.74;49.66;100213.09;5023703;28;20045;-72
2022/03/25 03:10:06;;;;;;;13.93;2.83;;;;;;;17.63;50.08;100198.50;5027980;28;20183;-73
2022/03/25 03:12:34;;;;;;;9.88;2.67;;;;;;;17.64;49.37;100183.25;5029918;28;20100;-69
2022/03/25 03:15:01;;;;;;;5.50;1.80;;;;;;;17.71;49.83;100206.13;5021299;28;20099;-69
2022/03/25 03:17:28;;;;;;;4.95;2.17;;;;;;;17.69;49.68;100197.16;5029496;28;20496;-71
2022/03/25 03:19:55;;;;;;;12.65;2.50;;;;;;;17.44;49.61;100150.91;5022322;28;20183;-71
2022/03/25 03:22:22;;;;;;;3.35;1.58;;;;;;;17.81;49.71;100204.13;5025849;28;20069;-70
2022/03/25 03:24:50;;;;;;;5.32;1.52;;;;;;;17.69;49.82;100190.69;5017823;28;20501;-70
2022/03/25 03:27:18;;;;;;;7.88;2.03;;;;;;;17.67;50.17;100199.47;5016560;28;20412;-71
2022/03/25 03:29:44;;;;;;;10.98;2.08;;;;;;;17.62;50.31;100196.03;5023318;28;20549;-72
2022/03/25 03:32:12;;;;;;;8.40;2.78;;;;;;;17.68;50.59;100200.34;5027727;28;20136;-72
2022/03/25 03:34:39;;;;;;;11.75;3.13;;;;;;;17.65;50.66;100196.19;5022792;28;20443;-71
2022/03/25 03:37:06;;;;;;;12.60;3.05;;;;;;;17.69;50.68;100199.97;5020075;28;20070;-70
2022/03/25 03:39:33;;;;;;;5.72;1.67;;;;;;;17.43;50.74;100171.00;5026834;28;20137;-70
2022/03/25 03:42:02;;;;;;;7.60;2.13;;;;;;;17.52;51.17;100202.84;5029746;28;20042;-70
2022/03/25 03:44:29;;;;;;;8.27;1.80;;;;;;;17.52;50.96;100188.75;5021688;28;20056;-70
2022/03/25 03:46:57;;;;;;;8.43;1.92;;;;;;;17.35;51.32;100185.97;5027428;28;20137;-70
2022/03/25 03:49:24;;;;;;;8.10;1.30;;;;;;;17.19;51.43;100183.66;5024580;28;20125;-71
2022/03/25 03:51:50;;;;;;;7.05;1.83;;;;;;;17.15;51.81;100191.13;5020944;28;20541;-70
2022/03/25 03:54:17;;;;;;;9.80;2.42;;;;;;;17.19;51.62;100178.00;5027585;28;20053;-70
2022/03/25 03:56:44;;;;;;;13.63;2.15;;;;;;;17.36;51.57;100190.44;5018614;28;20057;-71
2022/03/25 03:59:12;;;;;;;7.50;1.88;;;;;;;17.40;51.52;100186.63;5017200;28;20088;-71
2022/03/25 04:01:39;;;;;;;11.95;1.70;;;;;;;17.40;51.47;100185.78;5021553;28;20409;-71
2022/03/25 04:04:06;;;;;;;8.18;2.33;;;;;;;17.35;51.29;100181.13;5026250;28;20057;-71
2022/03/25 04:06:33;;;;;;;5.38;2.03;;;;;;;17.19;51.46;100165.88;5029078;28;20124;-71
2022/03/25 04:09:00;;;;;;;9.15;2.35;;;;;;;17.41;51.23;100178.97;5022461;28;20041;-71
2022/03/25 04:11:26;;;;;;;13.10;1.90;;;;;;;17.48;51.08;100193.41;5028725;28;20132;-71
2022/03/25 04:13:53;;;;;;;6.35;1.60;;;;;;;17.49;51.10;100200.69;5030012;28;20080;-71
2022/03/25 04:16:22;;;;;;;4.70;2.08;;;;;;;17.40;51.34;100194.22;5027370;28;20543;-71
2022/03/25 04:18:49;;;;;;;7.35;1.92;;;;;;;17.32;50.98;100172.50;5027561;28;20045;-71
2022/03/25 04:21:16;;;;;;;6.10;1.67;;;;;;;17.48;51.16;100182.13;5027951;28;20092;-71
2022/03/25 04:23:43;;;;;;;3.40;1.33;;;;;;;17.52;50.53;100189.56;5026483;28;20081;-71
2022/03/25 04:26:10;;;;;;;5.40;3.35;;;;;;;17.49;51.01;100197.88;5027811;28;20131;-70
2022/03/25 04:28:37;;;;;;;6.82;2.47;;;;;;;17.49;51.13;100200.69;5024608;28;20045;-70
2022/03/25 04:31:04;;;;;;;6.55;2.97;;;;;;;17.47;50.80;100194.56;5024537;28;20085;-71
2022/03/25 04:33:33;;;;;;;7.35;1.48;;;;;;;17.48;51.36;100204.69;5028100;28;20522;-71
2022/03/25 04:36:01;;;;;;;2.17;1.30;;;;;;;17.43;51.30;100199.22;5013886;28;20077;-70
2022/03/25 04:38:29;;;;;;;7.68;2.53;;;;;;;17.47;50.96;100208.66;5025615;28;20069;-70
2022/03/25 04:40:56;;;;;;;5.65;2.17;;;;;;;17.26;50.88;100177.50;5025764;28;20092;-71
2022/03/25 04:43:23;;;;;;;7.57;1.98;;;;;;;17.33;50.86;100193.91;5020416;28;20050;-73
2022/03/25 04:45:50;;;;;;;5.75;1.88;;;;;;;17.31;50.73;100196.25;5030884;28;20046;-72
2022/03/25 04:48:17;;;;;;;8.13;1.95;;;;;;;17.38;51.15;100199.41;5021123;28;20045;-72
2022/03/25 04:50:44;;;;;;;9.60;2.33;;;;;;;17.24;51.05;100175.03;5020878;28;20050;-71
2022/03/25 04:53:12;;;;;;;2.70;1.50;;;;;;;17.37;50.74;100187.28;5024493;28;20140;-72
2022/03/25 04:55:39;;;;;;;7.88;1.52;;;;;;;17.48;50.86;100201.88;5025748;28;20111;-72
2022/03/25 04:58:05;;;;;;;5.05;1.67;;;;;;;17.40;50.97;100194.22;5031116;28;20145;-73
2022/03/25 05:00:32;;;;;;;4.10;1.50;;;;;;;17.21;51.09;100164.41;5023793;28;20046;-73
2022/03/25 05:02:59;;;;;;;4.80;1.35;;;;;;;17.39;50.92;100184.94;5024333;28;20057;-72
2022/03/25 05:05:27;;;;;;;6.80;1.58;;;;;;;17.40;50.65;100183.81;5027939;28;20058;-73
2022/03/25 05:07:54;;;;;;;5.72;1.27;;;;;;;17.22;50.70;100149.13;5023715;28;20045;-73
2022/03/25 05:10:21;;;;;;;7.57;2.78;;;;;;;17.49;50.97;100175.28;5022452;28;20058;-73
2022/03/25 05:12:48;;;;;;;65.63;26.67;;;;;;;17.29;50.68;100140.97;5028570;28;20072;-73
2022/03/25 05:15:15;;;;;;;12.43;4.43;;;;;;;17.33;50.90;100171.34;5030615;28;20045;-72
2022/03/25 05:17:44;;;;;;;19.55;6.20;;;;;;;17.50;50.63;100194.75;5023193;28;20058;-73
2022/03/25 05:20:12;;;;;;;5.25;1.80;;;;;;;17.29;50.69;100174.84;5025468;28;20049;-73
2022/03/25 05:22:39;;;;;;;4.13;1.77;;;;;;;17.47;50.79;100205.84;5023947;28;20140;-72
2022/03/25 05:25:07;;;;;;;8.98;1.67;;;;;;;17.44;50.59;100201.72;5019318;28;20083;-72
2022/03/25 05:27:49;;;;;;;6.80;1.73;;;;;;;17.47;50.60;100206.69;5029033;28;20053;-74
2022/03/25 05:30:19;;;;;;;7.13;1.65;;;;;;;17.46;50.69;100201.38;5028702;28;20107;-74
2022/03/25 05:32:46;;;;;;;3.25;1.48;;;;;;;17.28;50.88;100180.81;5029826;28;20087;-75
2022/03/25 05:35:18;;;;;;;8.60;1.83;;;;;;;17.49;50.45;100204.34;5033494;28;20060;-74
2022/03/25 05:37:45;;;;;;;8.88;1.45;;;;;;;17.26;50.92;100189.63;5029908;28;20508;-76
2022/03/25 05:40:12;;;;;;;8.45;2.35;;;;;;;17.31;50.56;100180.16;5032875;28;20580;-74
2022/03/25 05:42:39;;;;;;;8.60;1.58;;;;;;;17.39;50.68;100199.06;5021667;28;20455;-74
2022/03/25 05:45:07;;;;;;;5.75;1.35;;;;;;;17.35;50.45;100183.13;5031947;28;20105;-74
2022/03/25 05:47:37;;;;;;;12.50;2.38;;;;;;;17.46;50.78;100209.84;5027392;28;20575;-73
2022/03/25 05:50:05;;;;;;;9.38;2.22;;;;;;;17.37;50.51;100209.88;5046469;28;20048;-74
2022/03/25 05:52:32;;;;;;;5.10;2.50;;;;;;;17.18;50.90;100198.94;5024638;28;20104;-73
2022/03/25 05:54:59;;;;;;;14.85;1.70;;;;;;;17.18;50.71;100201.75;5032128;28;20064;-70
2022/03/25 05:57:26;;;;;;;8.50;1.92;;;;;;;16.88;50.79;100160.44;5029420;28;20053;-73
2022/03/25 05:59:53;;;;;;;6.90;1.75;;;;;;;17.18;51.07;100198.09;5032485;28;20054;-72
2022/03/25 06:02:25;;;;;;;6.68;2.72;;;;;;;17.19;50.94;100211.88;5025957;28;20045;-71
2022/03/25 06:04:55;;;;;;;13.95;2.40;;;;;;;17.24;50.89;100225.81;5027564;28;20481;-73
2022/03/25 06:07:24;;;;;;;7.38;1.52;;;;;;;17.21;50.78;100226.47;5030133;28;20041;-74
2022/03/25 06:09:52;;;;;;;8.27;1.98;;;;;;;17.08;51.25;100219.00;5032786;28;20087;-72
2022/03/25 06:12:18;;;;;;;6.53;1.50;;;;;;;17.03;50.81;100199.44;5028123;28;20139;-71
2022/03/25 06:14:45;;;;;;;8.45;2.08;;;;;;;17.18;51.18;100227.16;5027066;28;20560;-70
2022/03/25 06:17:12;;;;;;;10.07;3.25;;;;;;;17.02;51.10;100209.06;5024291;28;20136;-70
2022/03/25 06:19:39;;;;;;;5.68;1.35;;;;;;;17.01;50.85;100204.59;5027892;28;20132;-69
2022/03/25 06:22:06;;;;;;;12.23;2.03;;;;;;;17.13;51.24;100215.19;5027497;28;20170;-71
2022/03/25 06:24:33;;;;;;;6.65;2.53;;;;;;;17.08;51.01;100204.91;5029247;28;20045;-70
2022/03/25 06:27:00;;;;;;;13.77;2.15;;;;;;;17.19;51.15;100225.97;5018225;28;20084;-71
2022/03/25 06:29:27;;;;;;;9.80;1.45;;;;;;;16.87;50.74;100176.56;5028095;28;20220;-71
2022/03/25 06:31:53;;;;;;;13.13;1.45;;;;;;;17.13;51.22;100227.34;5029308;28;20132;-70
2022/03/25 06:34:23;;;;;;;5.55;1.90;;;;;;;17.11;51.42;100249.38;5030304;28;20077;-69
2022/03/25 06:36:50;;;;;;;6.82;1.83;;;;;;;16.89;51.08;100218.50;5027564;28;20041;-72
2022/03/25 06:39:17;;;;;;;4.63;1.33;;;;;;;16.90;51.51;100232.28;5038777;28;20072;-70
2022/03/25 06:41:44;;;;;;;16.38;1.75;;;;;;;17.10;51.11;100247.75;5024343;28;20136;-71
2022/03/25 06:44:11;;;;;;;9.98;2.03;;;;;;;16.96;51.34;100230.16;5026967;28;20174;-70
2022/03/25 06:46:38;;;;;;;7.80;1.58;;;;;;;16.93;51.43;100231.63;5029866;28;20053;-68
2022/03/25 06:49:06;;;;;;;8.55;3.55;;;;;;;17.05;51.54;100250.72;5023172;28;20148;-69
2022/03/25 06:51:33;;;;;;;2.15;1.05;;;;;;;16.87;51.40;100229.31;5028239;28;20192;-69
2022/03/25 06:54:00;;;;;;;8.88;1.40;;;;;;;16.86;51.65;100241.75;5020396;28;20053;-69
2022/03/25 06:56:27;;;;;;;4.50;1.60;;;;;;;16.55;51.68;100183.47;5024656;28;20104;-69
2022/03/25 06:58:56;;;;;;;2.63;1.27;;;;;;;16.76;51.65;100220.34;5024974;28;20091;-69
2022/03/25 07:01:24;;;;;;;2.95;1.10;;;;;;;16.93;51.59;100242.91;5026568;28;20045;-69
2022/03/25 07:03:51;;;;;;;2.03;1.20;;;;;;;16.96;51.51;100252.72;5028739;28;20053;-69
2022/03/25 07:06:24;;;;;;;9.52;1.63;;;;;;;16.93;51.42;100236.44;5024979;28;20059;-69
2022/03/25 07:08:55;;;;;;;9.90;1.90;;;;;;;16.84;52.00;100239.25;5021332;28;20129;-69
2022/03/25 07:11:24;;;;;;;5.32;1.35;;;;;;;16.83;51.81;100231.13;5029204;28;20145;-69
2022/03/25 07:13:51;;;;;;;3.97;1.42;;;;;;;16.69;51.78;100220.81;5027486;28;20041;-69
2022/03/25 07:16:19;;;;;;;8.20;1.50;;;;;;;16.72;51.75;100222.97;5025064;28;20522;-69
2022/03/25 07:18:46;;;;;;;3.38;1.20;;;;;;;16.94;51.84;100238.09;5025230;28;20057;-69
2022/03/25 07:21:13;;;;;;;3.55;1.35;;;;;;;16.81;51.42;100215.34;5023314;28;20125;-69
2022/03/25 07:23:40;;;;;;;13.57;1.65;;;;;;;16.96;51.45;100227.34;5035885;28;20074;-68
2022/03/25 07:26:07;;;;;;;6.07;1.73;;;;;;;16.81;51.84;100206.91;5024774;28;20451;-69
2022/03/25 07:28:34;;;;;;;6.18;2.70;;;;;;;16.89;51.54;100210.03;5032932;28;20096;-70
2022/03/25 07:31:02;;;;;;;9.30;1.63;;;;;;;16.99;51.72;100237.94;5034313;28;20056;-70
2022/03/25 07:33:28;;;;;;;4.53;1.55;;;;;;;16.92;51.34;100224.34;5032552;28;20087;-69
2022/03/25 07:35:56;;;;;;;2.50;1.30;;;;;;;17.20;51.15;100247.41;5028118;28;20045;-67
2022/03/25 07:38:23;;;;;;;7.53;1.50;;;;;;;17.20;50.93;100241.75;5027343;28;20081;-69
2022/03/25 07:40:50;;;;;;;3.25;1.15;;;;;;;17.01;51.00;100198.94;5021772;28;20049;-69
2022/03/25 07:43:17;;;;;;;4.85;1.05;;;;;;;17.37;50.84;100242.91;5022114;28;20050;-69
2022/03/25 07:45:44;;;;;;;2.00;1.60;;;;;;;17.26;51.02;100233.94;5020501;28;20078;-68
2022/03/25 07:48:11;;;;;;;6.65;1.77;;;;;;;17.43;50.65;100255.66;5018234;28;20053;-70
2022/03/25 07:50:38;;;;;;;5.32;2.90;;;;;;;17.45;50.75;100265.47;5024143;28;20129;-70
2022/03/25 07:53:05;;;;;;;7.10;1.58;;;;;;;17.42;50.64;100254.84;5029937;28;20049;-69
2022/03/25 07:55:33;;;;;;;5.90;1.70;;;;;;;17.50;50.31;100236.22;5027653;28;20137;-69
2022/03/25 07:58:00;;;;;;;6.72;1.50;;;;;;;17.61;50.69;100262.97;5023338;28;20140;-69
2022/03/25 08:00:26;;;;;;;7.13;1.55;;;;;;;17.60;50.38;100252.81;5033136;28;20132;-68
2022/03/25 08:02:53;;;;;;;3.65;1.27;;;;;;;17.77;50.29;100261.28;5019407;28;20081;-69
2022/03/25 08:05:21;;;;;;;7.82;1.52;;;;;;;17.88;50.31;100249.63;5024126;28;20049;-68
2022/03/25 08:07:54;;;;;;;7.88;1.92;;;;;;;18.06;50.15;100256.88;5018764;28;20581;-69
2022/03/25 08:10:28;;;;;;;5.40;1.35;;;;;;;18.22;49.88;100259.97;5021546;28;20511;-68
2022/03/25 08:12:56;;;;;;;5.57;1.58;;;;;;;18.24;49.42;100263.28;5023593;28;20132;-68
2022/03/25 08:15:27;;;;;;;5.13;1.52;;;;;;;18.01;49.69;100248.59;5023670;28;20076;-68
2022/03/25 08:17:57;;;;;;;4.18;1.30;;;;;;;18.10;49.39;100259.88;5041162;28;20073;-67
2022/03/25 08:20:28;;;;;;;5.93;1.20;;;;;;;17.95;49.39;100249.97;5023404;28;20126;-67
2022/03/25 08:22:57;;;;;;;5.00;1.33;;;;;;;18.01;49.28;100254.22;5024463;28;20091;-67
2022/03/25 08:28:11;;;;;;;8.73;1.30;;;;;;;18.06;49.42;100225.81;5023951;28;20085;-67
2022/03/25 08:30:39;;;;;;;7.25;1.80;;;;;;;18.40;49.36;100255.91;5023165;28;20419;-67
2022/03/25 08:33:07;;;;;;;6.90;1.80;;;;;;;18.38;49.22;100257.41;5027645;28;20136;-67
2022/03/25 08:35:36;;;;;;;1.25;0.77;;;;;;;17.90;49.09;100219.06;5027097;28;20183;-68
2022/03/25 08:38:03;;;;;;;3.00;1.10;;;;;;;18.10;49.12;100255.03;5024348;28;20077;-68
2022/03/25 08:40:32;;;;;;;2.95;1.38;;;;;;;18.17;49.10;100251.69;5022339;28;20196;-68
2022/03/25 08:43:01;;;;;;;4.72;1.85;;;;;;;18.39;48.98;100259.91;5024674;28;20081;-68
2022/03/25 08:45:28;;;;;;;4.30;1.45;;;;;;;18.21;48.81;100245.00;5025828;28;20072;-68
2022/03/25 08:47:55;;;;;;;3.78;1.60;;;;;;;18.06;49.06;100227.81;5024319;28;20329;-67
2022/03/25 08:50:23;;;;;;;6.70;1.90;;;;;;;18.19;48.94;100240.88;5023338;28;20133;-67
2022/03/25 08:52:52;;;;;;;7.60;1.30;;;;;;;18.50;49.03;100254.69;5026341;28;20053;-67
2022/03/25 08:55:21;;;;;;;4.68;1.67;;;;;;;18.60;48.47;100254.31;5023907;28;20555;-68
2022/03/25 08:57:48;;;;;;;1.38;0.55;;;;;;;18.58;48.29;100262.28;5027271;28;20084;-67
2022/03/25 09:00:18;;;;;;;3.75;2.15;;;;;;;18.54;48.09;100244.34;5027684;28;20154;-67
2022/03/25 09:02:46;;;;;;;6.65;1.92;;;;;;;18.61;48.36;100238.97;5010683;28;20119;-68
2022/03/25 09:05:15;;;;;;;4.70;1.90;;;;;;;18.65;47.80;100254.09;5023834;28;20081;-68
2022/03/25 09:07:43;;;;;;;5.10;1.40;;;;;;;18.61;47.84;100249.47;5024056;28;20108;-67
2022/03/25 09:10:14;;;;;;;4.85;1.73;;;;;;;18.61;48.12;100267.25;5025397;28;20132;-67
2022/03/25 09:12:42;;;;;;;7.22;2.17;;;;;;;18.63;47.86;100244.28;5020962;28;20049;-68
2022/03/25 09:15:12;;;;;;;1.38;0.95;;;;;;;18.55;48.15;100262.16;5022419;28;20107;-68
2022/03/25 09:17:41;;;;;;;4.28;1.23;;;;;;;18.74;47.49;100264.56;5020049;28;20064;-68
2022/03/25 09:20:08;;;;;;;2.67;1.50;;;;;;;18.65;47.74;100273.88;5023345;28;20052;-68
2022/03/25 09:22:35;;;;;;;3.92;1.42;;;;;;;18.65;47.57;100245.59;5020997;28;20504;-67
2022/03/25 09:25:07;;;;;;;6.50;1.75;;;;;;;19.02;47.39;100267.69;5021649;28;20071;-67
2022/03/25 09:27:35;;;;;;;3.95;1.63;;;;;;;19.05;47.52;100276.31;5022585;28;20523;-68
2022/03/25 09:30:05;;;;;;;3.58;1.42;;;;;;;18.97;47.73;100279.19;5019474;28;20120;-67
2022/03/25 09:32:52;;;;;;;6.75;1.98;;;;;;;18.90;47.44;100274.09;5018381;28;20050;-67
2022/03/25 09:35:21;;;;;;;10.73;1.92;;;;;;;18.97;47.40;100280.03;5019119;28;20068;-69
2022/03/25 09:37:49;;;;;;;1.23;0.98;;;;;;;18.58;47.73;100227.53;5033336;28;20080;-68
2022/03/25 09:40:19;;;;;;;4.53;1.52;;;;;;;18.88;47.81;100293.44;5017039;28;20069;-68
2022/03/25 09:42:47;;;;;;;5.65;2.20;;;;;;;19.14;47.49;100290.38;5020008;28;20532;-68
2022/03/25 09:45:18;;;;;;;5.95;1.10;;;;;;;19.20;47.30;100286.19;5022135;28;20076;-68
2022/03/25 09:47:47;;;;;;;3.97;1.10;;;;;;;19.21;46.78;100279.34;5024517;28;20511;-68
2022/03/25 09:50:21;;;;;;;8.38;1.92;;;;;;;19.30;47.00;100265.13;5021932;28;20045;-68
2022/03/25 09:52:49;;;;;;;10.32;2.58;;;;;;;19.73;46.78;100283.75;5022427;28;20046;-68
2022/03/25 09:55:38;;;;;;;0.70;0.57;;;;;;;19.68;46.62;100295.28;5020490;28;20060;-69
2022/03/25 09:58:04;;;;;;;9.02;2.25;;;;;;;19.41;46.37;100283.34;5027419;28;20088;-68
2022/03/25 10:00:32;;;;;;;2.33;1.48;;;;;;;19.26;46.83;100301.78;5026433;28;20128;-68
2022/03/25 10:02:59;;;;;;;4.03;2.10;;;;;;;19.22;46.93;100291.53;5026590;28;20058;-68
2022/03/25 10:05:26;;;;;;;11.15;2.15;;;;;;;19.00;47.35;100268.03;5030137;28;20084;-69
2022/03/25 10:07:57;;;;;;;7.07;1.90;;;;;;;19.22;47.08;100277.38;5030040;28;20104;-68
2022/03/25 10:10:29;;;;;;;4.93;1.98;;;;;;;19.37;47.13;100288.06;5025139;28;20054;-68
2022/03/25 10:13:05;;;;;;;3.08;1.30;;;;;;;19.21;46.88;100293.50;5028971;28;20081;-69
2022/03/25 10:15:37;;;;;;;5.47;1.95;;;;;;;19.57;46.59;100298.53;5030538;28;20057;-66
2022/03/25 10:18:06;;;;;;;5.32;1.70;;;;;;;20.02;45.78;100285.59;5032167;28;20061;-67
2022/03/25 10:20:35;;;;;;;6.75;1.63;;;;;;;20.08;45.16;100285.03;5025075;28;20139;-68
2022/03/25 10:23:17;;;;;;;8.57;4.20;;;;;;;20.28;44.88;100276.78;5028052;28;20124;-67
2022/03/25 10:25:45;;;;;;;3.03;1.95;;;;;;;20.43;44.32;100318.63;5031116;28;20049;-69
2022/03/25 10:28:22;;;;;;;2.38;0.95;;;;;;;20.46;44.17;100288.72;5030213;28;20089;-68
2022/03/25 10:30:53;;;;;;;6.13;1.38;;;;;;;20.47;44.24;100285.53;5026369;28;20141;-68
2022/03/25 10:33:34;;;;;;;8.77;2.83;;;;;;;20.33;44.20;100280.19;5023751;28;20139;-68
2022/03/25 10:36:10;;;;;;;3.72;1.95;;;;;;;20.57;44.05;100293.59;5027837;28;20050;-68
2022/03/25 10:38:58;;;;;;;12.35;3.50;;;;;;;20.54;43.75;100256.59;5025324;28;20130;-67
2022/03/25 10:41:36;;;;;;;16.65;3.45;;;;;;;21.22;43.45;100278.63;5028670;28;20081;-68
2022/03/25 10:44:04;;;;;;;9.18;2.00;;;;;;;21.25;42.41;100267.38;5030587;28;20088;-69
2022/03/25 10:46:39;;;;;;;3.17;1.23;;;;;;;21.35;41.80;100305.00;5028373;28;20049;-68
2022/03/25 10:49:12;;;;;;;17.33;4.35;;;;;;;21.40;42.00;100293.38;5024670;28;20420;-69
2022/03/25 10:51:57;;;;;;;10.30;2.78;;;;;;;21.56;41.54;100282.91;5027059;28;20153;-69
2022/03/25 10:54:28;;;;;;;7.57;2.70;;;;;;;21.17;41.04;100278.88;5023090;28;20080;-68
2022/03/25 10:57:02;;;;;;;9.90;3.75;;;;;;;20.85;41.53;100292.06;5025227;28;20081;-68
2022/03/25 10:59:30;;;;;;;14.60;2.58;;;;;;;20.79;42.09;100263.94;5020792;28;20054;-68
2022/03/25 11:02:00;;;;;;;5.28;1.70;;;;;;;21.08;41.73;100283.88;5025676;28;20066;-68
2022/03/25 11:04:28;;;;;;;6.05;1.58;;;;;;;20.55;41.92;100276.13;5022903;28;20053;-68
2022/03/25 11:06:56;;;;;;;16.45;3.28;;;;;;;20.56;42.52;100296.81;5026354;28;20404;-68
2022/03/25 11:09:26;;;;;;;4.28;1.58;;;;;;;20.31;42.81;100293.09;5024741;28;20124;-68
2022/03/25 11:11:58;;;;;;;5.95;1.67;;;;;;;20.26;42.88;100287.66;5027158;28;20103;-68
2022/03/25 11:14:25;;;;;;;;;;;;;;;19.96;43.61;100299.16;5028445;28;20421;-67
2022/03/25 11:16:58;;;;;;;16.05;3.65;;;;;;;20.22;43.20;100278.19;5026950;28;20398;-68
2022/03/25 11:19:26;;;;;;;2.80;1.20;;;;;;;20.13;43.41;100281.94;5028244;28;20535;-67
2022/03/25 11:21:59;;;;;;;11.52;2.95;;;;;;;20.08;43.29;100287.84;5024979;28;20096;-68
2022/03/25 11:24:31;;;;;;;3.63;1.23;;;;;;;19.90;43.31;100269.41;5025288;28;20049;-67
2022/03/25 11:27:28;;;;;;;3.47;1.27;;;;;;;19.89;43.69;100287.56;5029645;28;20389;-68
2022/03/25 11:30:03;;;;;;;7.97;2.03;;;;;;;19.87;43.40;100270.09;5016982;28;20754;-67
2022/03/25 11:32:30;;;;;;;13.18;2.53;;;;;;;19.92;43.74;100286.03;5030843;28;20045;-68